Time;durP1;ratioP1;P1;durP2;ratioP2;P2;SDS_P1;SDS_P2;PMS_P1;PMS_P2;Temp;Humidity;BMP_temperature;BMP_pressure;BME280_temperature;BME280_humidity;BME280_pressure;Samples;Min_cycle;Max_cycle;Signal;HPM_P1;HPM_P2
2021/12/01 00:00:27;;;;;;;1.35;1.35;;;9.00;99.90;;;;;;5071707;28;20291;-79
2021/12/01 00:02:55;;;;;;;2.72;2.50;;;9.00;99.90;;;;;;5072007;28;20218;-79
2021/12/01 00:05:24;;;;;;;3.15;2.10;;;9.00;99.90;;;;;;5072162;28;20665;-80
2021/12/01 00:07:52;;;;;;;2.65;2.47;;;9.00;99.90;;;;;;5071752;28;20207;-76
2021/12/01 00:10:20;;;;;;;1.88;1.52;;;9.00;99.90;;;;;;5071434;28;20201;-79
2021/12/01 00:12:48;;;;;;;2.58;2.25;;;8.90;99.90;;;;;;5072068;28;20216;-78
2021/12/01 00:15:15;;;;;;;2.58;2.35;;;8.90;99.90;;;;;;5071783;28;20725;-79
2021/12/01 00:17:43;;;;;;;3.20;2.25;;;8.90;99.90;;;;;;5071576;28;20211;-79
2021/12/01 00:20:13;;;;;;;2.08;1.88;;;8.90;99.90;;;;;;5071751;28;20196;-78
2021/12/01 00:22:40;;;;;;;1.42;1.33;;;8.80;99.90;;;;;;5071418;28;20598;-79
2021/12/01 00:25:09;;;;;;;2.13;1.92;;;8.80;99.90;;;;;;5072353;28;20217;-79
2021/12/01 00:27:37;;;;;;;0.98;0.88;;;8.80;99.90;;;;;;5071123;28;20195;-78
2021/12/01 00:30:05;;;;;;;1.35;1.25;;;8.80;99.90;;;;;;5071714;28;20567;-79
2021/12/01 00:32:32;;;;;;;1.35;1.00;;;8.80;99.90;;;;;;5071509;28;20218;-79
2021/12/01 00:35:01;;;;;;;2.08;1.95;;;8.80;99.90;;;;;;5071533;28;20220;-79
2021/12/01 00:37:28;;;;;;;1.33;1.23;;;8.80;99.90;;;;;;5071774;28;20201;-79
2021/12/01 00:39:55;;;;;;;1.35;1.25;;;8.80;99.90;;;;;;5071589;28;20196;-78
2021/12/01 00:42:22;;;;;;;1.73;1.63;;;8.70;99.90;;;;;;5071273;28;20224;-79
2021/12/01 00:44:55;;;;;;;0.82;0.82;;;8.70;99.90;;;;;;5071423;28;20193;-78
2021/12/01 00:47:30;;;;;;;1.17;0.85;;;8.70;99.90;;;;;;5070903;28;20636;-78
2021/12/01 00:49:57;;;;;;;0.88;0.80;;;8.70;99.90;;;;;;5071171;28;20191;-79
2021/12/01 00:52:26;;;;;;;1.35;0.80;;;8.70;99.90;;;;;;5071568;28;20214;-79
2021/12/01 00:54:53;;;;;;;1.45;1.40;;;8.70;99.90;;;;;;5071442;28;20211;-78
2021/12/01 00:57:20;;;;;;;2.10;1.40;;;8.70;99.90;;;;;;5071510;28;20194;-79
2021/12/01 00:59:47;;;;;;;1.67;1.58;;;8.70;99.90;;;;;;5071149;28;20207;-78
2021/12/01 01:02:14;;;;;;;1.55;1.45;;;8.70;99.90;;;;;;5071695;28;20216;-78
2021/12/01 01:04:41;;;;;;;2.08;1.55;;;8.70;99.90;;;;;;5071251;28;20203;-78
2021/12/01 01:07:07;;;;;;;2.55;2.20;;;8.70;99.90;;;;;;5074291;28;20193;-79
2021/12/01 01:09:36;;;;;;;2.05;1.02;;;8.70;99.90;;;;;;5074991;28;20198;-78
2021/12/01 01:17:37;;;;;;;1.98;1.73;;;8.70;99.90;;;;;;5075154;28;20194;-79
2021/12/01 01:20:06;;;;;;;1.33;1.23;;;8.70;99.90;;;;;;5074897;28;20198;-78
2021/12/01 01:22:33;;;;;;;1.58;1.48;;;8.70;99.90;;;;;;5074531;28;20227;-77
2021/12/01 01:25:02;;;;;;;1.42;1.08;;;8.70;99.90;;;;;;5075154;28;20198;-78
2021/12/01 01:27:29;;;;;;;0.73;0.73;;;8.70;99.90;;;;;;5075229;28;20193;-78
2021/12/01 01:29:56;;;;;;;1.00;0.93;;;8.70;99.90;;;;;;5074347;28;20195;-78
2021/12/01 01:32:23;;;;;;;1.55;1.45;;;8.70;99.90;;;;;;5074747;28;20710;-78
2021/12/01 01:34:49;;;;;;;0.63;0.60;;;8.70;99.90;;;;;;5074946;28;20977;-77
2021/12/01 01:37:16;;;;;;;1.35;1.25;;;8.70;99.90;;;;;;5074097;28;20195;-78
2021/12/01 01:39:43;;;;;;;0.75;0.70;;;8.80;99.90;;;;;;5074767;28;20192;-78
2021/12/01 01:42:11;;;;;;;1.10;0.55;;;8.80;99.90;;;;;;5074573;28;20227;-78
2021/12/01 01:44:38;;;;;;;0.82;0.82;;;8.80;99.90;;;;;;5074301;28;20204;-78
2021/12/01 01:47:05;;;;;;;0.80;0.80;;;8.80;99.90;;;;;;5073967;28;20575;-78
2021/12/01 01:49:43;;;;;;;0.88;0.88;;;8.80;99.90;;;;;;5073922;28;20199;-78
2021/12/01 01:52:10;;;;;;;1.08;0.88;;;8.80;99.90;;;;;;5074392;28;20582;-78
2021/12/01 01:54:37;;;;;;;1.20;1.10;;;8.80;99.90;;;;;;5074773;28;20203;-77
2021/12/01 01:57:04;;;;;;;1.95;0.98;;;8.80;99.90;;;;;;5074361;28;20215;-78
2021/12/01 01:59:32;;;;;;;1.95;1.75;;;8.80;99.90;;;;;;5074036;28;20575;-78
2021/12/01 02:02:01;;;;;;;2.05;1.20;;;8.80;99.90;;;;;;5074282;28;20540;-77
2021/12/01 02:04:32;;;;;;;1.08;0.75;;;8.70;99.90;;;;;;5074565;28;20197;-78
2021/12/01 02:07:00;;;;;;;0.70;0.60;;;8.70;99.90;;;;;;5074205;28;20670;-78
2021/12/01 02:09:27;;;;;;;0.95;0.95;;;8.70;99.90;;;;;;5074168;28;20631;-78
2021/12/01 02:11:56;;;;;;;0.70;0.70;;;8.70;99.90;;;;;;5073952;28;20200;-77
2021/12/01 02:14:24;;;;;;;2.72;1.63;;;8.70;99.90;;;;;;5074022;28;20197;-78
2021/12/01 02:16:53;;;;;;;0.90;0.90;;;8.70;99.90;;;;;;5073784;28;20227;-78
2021/12/01 02:19:21;;;;;;;1.15;1.05;;;8.60;99.90;;;;;;5073382;28;20196;-78
2021/12/01 02:21:49;;;;;;;1.30;0.77;;;8.60;99.90;;;;;;5073939;28;20199;-76
2021/12/01 02:24:18;;;;;;;7.97;0.93;;;8.60;99.90;;;;;;5073777;28;20575;-78
2021/12/01 02:26:49;;;;;;;2.55;2.38;;;8.60;99.90;;;;;;5074100;28;20192;-77
2021/12/01 02:29:18;;;;;;;0.90;0.90;;;8.60;99.90;;;;;;5073609;28;20202;-78
2021/12/01 02:31:46;;;;;;;1.40;1.33;;;8.60;99.90;;;;;;5073472;28;20206;-77
2021/12/01 02:34:17;;;;;;;1.85;1.08;;;8.50;99.90;;;;;;5073388;28;20199;-78
2021/12/01 02:36:47;;;;;;;0.80;0.73;;;8.50;99.90;;;;;;5073992;28;20622;-78
2021/12/01 02:39:16;;;;;;;1.30;0.80;;;8.50;99.90;;;;;;5073095;28;20196;-76
2021/12/01 02:41:44;;;;;;;1.70;0.90;;;8.50;99.90;;;;;;5073828;28;20201;-74
2021/12/01 02:44:12;;;;;;;1.15;0.85;;;8.50;99.90;;;;;;5073747;28;20191;-78
2021/12/01 02:46:39;;;;;;;1.20;1.10;;;8.50;99.90;;;;;;5072592;28;20196;-77
2021/12/01 02:49:06;;;;;;;1.15;1.10;;;8.40;99.90;;;;;;5072898;28;20687;-77
2021/12/01 02:51:36;;;;;;;0.40;0.40;;;8.40;99.90;;;;;;5073351;28;20223;-77
2021/12/01 02:54:04;;;;;;;1.58;1.48;;;8.40;99.90;;;;;;5073201;28;20220;-79
2021/12/01 02:56:33;;;;;;;0.73;0.73;;;8.40;99.90;;;;;;5073507;28;20248;-78
2021/12/01 02:59:02;;;;;;;1.85;1.10;;;8.40;99.90;;;;;;5072916;28;20756;-78
2021/12/01 03:01:29;;;;;;;1.85;1.75;;;8.40;99.90;;;;;;5073135;28;20567;-78
2021/12/01 03:03:59;;;;;;;2.55;1.02;;;8.40;99.90;;;;;;5072876;28;20223;-78
2021/12/01 03:06:27;;;;;;;1.30;1.05;;;8.40;99.90;;;;;;5073262;28;20278;-78
2021/12/01 03:08:56;;;;;;;0.90;0.73;;;8.40;99.90;;;;;;5072555;28;20673;-77
2021/12/01 03:11:25;;;;;;;1.77;1.55;;;8.40;99.90;;;;;;5072947;28;20200;-77
2021/12/01 03:13:53;;;;;;;1.15;1.05;;;8.30;99.90;;;;;;5072519;28;20219;-77
2021/12/01 03:16:20;;;;;;;3.60;1.33;;;8.30;99.90;;;;;;5072780;28;20247;-77
2021/12/01 03:18:47;;;;;;;1.58;1.02;;;8.30;99.90;;;;;;5072897;28;20202;-77
2021/12/01 03:21:15;;;;;;;1.33;1.13;;;8.30;99.90;;;;;;5072531;28;20284;-78
2021/12/01 03:23:42;;;;;;;2.20;1.42;;;8.30;99.90;;;;;;5072527;28;20228;-78
2021/12/01 03:26:09;;;;;;;1.80;0.73;;;8.30;99.90;;;;;;5072621;28;20200;-78
2021/12/01 03:28:36;;;;;;;2.25;1.88;;;8.30;99.90;;;;;;5072008;28;20202;-77
2021/12/01 03:31:04;;;;;;;1.52;1.40;;;8.20;99.90;;;;;;5072194;28;20575;-78
2021/12/01 03:33:31;;;;;;;6.15;1.88;;;8.20;99.90;;;;;;5146238;22;20312;-76
2021/12/01 03:35:58;;;;;;;0.55;0.55;;;8.20;99.90;;;;;;5101590;28;20210;-78
2021/12/01 03:38:27;;;;;;;3.15;1.10;;;8.20;99.90;;;;;;5116175;28;20205;-78
2021/12/01 03:40:55;;;;;;;1.60;1.50;;;8.20;99.90;;;;;;5116033;28;20206;-78
2021/12/01 03:43:22;;;;;;;3.72;2.38;;;8.20;99.90;;;;;;5117265;28;20226;-78
2021/12/01 03:45:49;;;;;;;2.80;2.67;;;8.20;99.90;;;;;;5116335;28;20659;-78
2021/12/01 03:48:17;;;;;;;2.40;1.65;;;8.20;99.90;;;;;;5115819;28;20206;-78
2021/12/01 03:50:48;;;;;;;5.65;2.63;;;8.20;99.90;;;;;;5116081;28;20199;-78
2021/12/01 03:53:16;;;;;;;1.67;1.45;;;8.20;99.90;;;;;;5116213;28;20222;-78
2021/12/01 03:55:43;;;;;;;5.53;3.00;;;8.20;99.90;;;;;;5117108;28;20728;-78
2021/12/01 03:58:10;;;;;;;3.63;2.63;;;8.20;99.90;;;;;;5119978;28;20193;-79
2021/12/01 04:00:37;;;;;;;3.45;3.15;;;8.10;99.90;;;;;;5120759;28;20194;-78
2021/12/01 04:03:04;;;;;;;3.15;1.98;;;8.10;99.90;;;;;;5120316;28;20715;-78
2021/12/01 04:05:33;;;;;;;1.85;1.50;;;8.10;99.90;;;;;;5119987;28;20213;-79
2021/12/01 04:08:01;;;;;;;1.60;1.13;;;8.00;99.90;;;;;;5121315;28;20197;-78
2021/12/01 04:10:30;;;;;;;2.70;2.50;;;8.00;99.90;;;;;;5121296;28;20190;-78
2021/12/01 04:12:57;;;;;;;3.67;1.75;;;7.90;99.90;;;;;;5122579;28;20221;-79
2021/12/01 04:15:24;;;;;;;1.05;1.05;;;7.90;99.90;;;;;;5124283;28;20193;-79
2021/12/01 04:17:52;;;;;;;5.45;3.47;;;7.90;99.90;;;;;;5124464;28;20198;-78
2021/12/01 04:20:19;;;;;;;4.70;2.92;;;7.80;99.90;;;;;;5123689;28;20223;-79
2021/12/01 04:22:49;;;;;;;4.03;3.70;;;7.80;99.90;;;;;;5124104;28;20244;-79
2021/12/01 04:25:18;;;;;;;2.30;2.05;;;7.80;99.90;;;;;;5120858;28;20204;-79
2021/12/01 04:27:45;;;;;;;6.78;2.13;;;7.80;99.90;;;;;;5121324;28;20221;-78
2021/12/01 04:30:15;;;;;;;4.90;4.05;;;7.70;99.90;;;;;;5119431;28;20223;-78
2021/12/01 04:32:42;;;;;;;5.30;2.00;;;7.70;99.90;;;;;;5121129;28;20228;-78
2021/12/01 04:35:10;;;;;;;3.83;2.90;;;7.70;99.90;;;;;;5119730;28;20204;-78
2021/12/01 04:37:37;;;;;;;5.47;4.22;;;7.70;99.90;;;;;;5121149;28;20236;-79
2021/12/01 04:40:07;;;;;;;3.88;3.10;;;7.70;99.90;;;;;;5120324;28;20204;-79
2021/12/01 04:42:34;;;;;;;2.50;2.28;;;7.70;99.90;;;;;;5120345;28;20774;-78
2021/12/01 04:45:01;;;;;;;3.72;3.03;;;7.70;99.90;;;;;;5119373;28;20219;-79
2021/12/01 04:47:30;;;;;;;4.43;3.22;;;7.70;99.90;;;;;;5120911;28;20194;-79
2021/12/01 04:49:58;;;;;;;1.75;1.65;;;7.70;99.90;;;;;;5120030;28;20610;-78
2021/12/01 04:52:25;;;;;;;2.28;1.90;;;7.70;99.90;;;;;;5120087;28;20223;-78
2021/12/01 04:54:52;;;;;;;3.03;2.05;;;7.70;99.90;;;;;;5115055;28;20207;-78
2021/12/01 04:57:20;;;;;;;3.10;2.80;;;7.70;99.90;;;;;;5115099;28;20258;-78
2021/12/01 04:59:48;;;;;;;1.95;1.60;;;7.70;99.90;;;;;;5115566;28;20204;-78
2021/12/01 05:02:15;;;;;;;2.45;1.77;;;7.70;99.90;;;;;;5119917;28;20215;-77
2021/12/01 05:04:42;;;;;;;3.13;2.90;;;7.70;99.90;;;;;;5122165;28;20262;-78
2021/12/01 05:07:09;;;;;;;2.85;2.65;;;7.70;99.90;;;;;;5121380;28;20347;-79
2021/12/01 05:09:36;;;;;;;5.63;2.50;;;7.70;99.90;;;;;;5121961;28;20195;-78
2021/12/01 05:12:06;;;;;;;1.58;1.23;;;7.70;99.90;;;;;;5121682;28;20224;-78
2021/12/01 05:14:35;;;;;;;5.13;2.45;;;7.70;99.90;;;;;;5120973;28;20214;-76
2021/12/01 05:17:02;;;;;;;2.92;2.17;;;7.70;99.90;;;;;;5121368;28;20218;-78
2021/12/01 05:19:29;;;;;;;2.80;2.20;;;7.70;99.90;;;;;;5119982;28;20202;-79
2021/12/01 05:21:55;;;;;;;1.60;1.50;;;7.70;99.90;;;;;;5120950;28;20212;-78
2021/12/01 05:24:23;;;;;;;1.30;1.20;;;7.70;99.90;;;;;;5120907;28;20272;-78
2021/12/01 05:26:49;;;;;;;1.40;1.30;;;7.70;99.90;;;;;;5121860;28;20613;-79
2021/12/01 05:29:16;;;;;;;2.30;2.13;;;7.70;99.90;;;;;;5120903;28;20197;-78
2021/12/01 05:31:44;;;;;;;2.25;1.35;;;7.70;99.90;;;;;;5120060;28;20239;-79
2021/12/01 05:34:11;;;;;;;3.08;0.90;;;7.80;99.90;;;;;;5116493;28;20199;-78
2021/12/01 05:36:38;;;;;;;1.13;1.13;;;7.80;99.90;;;;;;5115675;28;20208;-77
2021/12/01 05:39:05;;;;;;;1.33;1.23;;;7.80;99.90;;;;;;5115547;28;20198;-78
2021/12/01 05:41:32;;;;;;;1.17;0.90;;;7.80;99.90;;;;;;5114292;28;20204;-77
2021/12/01 05:43:59;;;;;;;0.65;0.63;;;7.80;99.90;;;;;;5114429;28;20198;-78
2021/12/01 05:46:27;;;;;;;2.08;1.95;;;7.90;99.90;;;;;;5115795;28;20199;-77
2021/12/01 05:48:55;;;;;;;1.45;1.35;;;7.90;99.90;;;;;;5113789;28;20217;-77
2021/12/01 05:51:22;;;;;;;2.72;2.40;;;7.90;99.90;;;;;;5113978;28;20188;-79
2021/12/01 05:53:50;;;;;;;0.82;0.82;;;8.00;99.90;;;;;;5116062;28;20215;-78
2021/12/01 05:56:17;;;;;;;1.65;1.35;;;8.00;99.90;;;;;;5118144;28;20211;-78
2021/12/01 05:58:43;;;;;;;1.55;1.33;;;8.00;99.90;;;;;;5122942;28;20663;-78
2021/12/01 06:01:10;;;;;;;3.05;1.35;;;8.00;99.90;;;;;;5123043;28;20281;-78
2021/12/01 06:03:39;;;;;;;1.42;1.20;;;8.00;99.90;;;;;;5123017;28;20226;-78
2021/12/01 06:06:08;;;;;;;1.20;1.02;;;8.00;99.90;;;;;;5123443;28;20198;-78
2021/12/01 06:08:35;;;;;;;1.90;1.65;;;8.00;99.90;;;;;;5123722;28;20222;-79
2021/12/01 06:11:02;;;;;;;0.80;0.80;;;8.00;99.90;;;;;;5123794;28;20278;-78
2021/12/01 06:13:29;;;;;;;0.60;0.57;;;8.00;99.90;;;;;;5120282;28;20222;-78
2021/12/01 06:15:56;;;;;;;0.70;0.70;;;8.10;99.90;;;;;;5118983;28;20703;-78
2021/12/01 06:18:23;;;;;;;1.15;0.70;;;8.10;99.90;;;;;;5118360;28;20283;-78
2021/12/01 06:20:50;;;;;;;13.77;4.15;;;8.10;99.90;;;;;;5118088;28;20233;-78
2021/12/01 06:23:18;;;;;;;0.60;0.60;;;8.10;99.90;;;;;;5120538;28;20219;-78
2021/12/01 06:25:45;;;;;;;5.97;2.50;;;8.20;99.90;;;;;;5123036;28;20601;-78
2021/12/01 06:28:11;;;;;;;1.52;1.17;;;8.20;99.90;;;;;;5120809;28;20219;-79
2021/12/01 06:30:39;;;;;;;0.80;0.50;;;8.20;99.90;;;;;;5121842;28;20262;-78
2021/12/01 06:33:07;;;;;;;0.80;0.80;;;8.20;99.90;;;;;;5121395;28;20216;-78
2021/12/01 06:35:34;;;;;;;0.88;0.88;;;8.20;99.90;;;;;;5122449;28;20206;-77
2021/12/01 06:38:02;;;;;;;1.15;1.00;;;8.20;99.90;;;;;;5122474;28;20631;-78
2021/12/01 06:40:31;;;;;;;0.85;0.77;;;8.20;99.90;;;;;;5122306;28;20205;-79
2021/12/01 06:42:58;;;;;;;0.80;0.80;;;8.20;99.90;;;;;;5125219;28;20241;-79
2021/12/01 06:45:25;;;;;;;1.40;1.30;;;8.20;99.90;;;;;;5123625;28;20196;-79
2021/12/01 06:47:51;;;;;;;1.90;0.70;;;8.10;99.90;;;;;;5125783;28;20221;-78
2021/12/01 06:50:18;;;;;;;1.02;0.60;;;8.00;99.90;;;;;;5117892;28;20202;-78
2021/12/01 06:52:45;;;;;;;0.77;0.75;;;7.90;99.90;;;;;;5111766;28;20228;-78
2021/12/01 06:55:12;;;;;;;3.45;1.27;;;7.90;99.90;;;;;;5118563;28;20209;-78
2021/12/01 06:57:41;;;;;;;0.70;0.60;;;7.80;99.90;;;;;;5107327;28;20211;-76
2021/12/01 07:00:11;;;;;;;1.08;0.98;;;7.80;99.90;;;;;;5098606;28;20249;-77
2021/12/01 07:02:38;;;;;;;1.23;1.13;;;7.70;99.90;;;;;;5097852;28;20309;-78
2021/12/01 07:05:07;;;;;;;0.88;0.80;;;7.70;99.90;;;;;;5095482;28;20195;-77
2021/12/01 07:07:34;;;;;;;1.17;0.68;;;7.60;99.90;;;;;;5093916;28;20187;-77
2021/12/01 07:10:01;;;;;;;0.98;0.63;;;7.60;99.90;;;;;;5093523;28;20193;-78
2021/12/01 07:12:28;;;;;;;1.60;0.80;;;7.60;99.90;;;;;;5093584;28;20214;-77
2021/12/01 07:14:56;;;;;;;0.40;0.40;;;7.60;99.90;;;;;;5094720;28;20565;-77
2021/12/01 07:17:26;;;;;;;0.60;0.40;;;7.60;99.90;;;;;;5093046;28;20222;-77
2021/12/01 07:19:53;;;;;;;0.95;0.70;;;7.60;99.90;;;;;;5093466;28;20210;-77
2021/12/01 07:22:20;;;;;;;0.82;0.82;;;7.60;99.90;;;;;;5094756;28;20222;-78
2021/12/01 07:24:46;;;;;;;0.50;0.40;;;7.70;99.90;;;;;;5094870;28;20281;-78
2021/12/01 07:27:13;;;;;;;2.47;1.50;;;7.70;99.90;;;;;;5094485;28;20198;-78
2021/12/01 07:29:42;;;;;;;1.08;0.70;;;7.70;99.90;;;;;;5094770;28;20194;-78
2021/12/01 07:32:11;;;;;;;0.50;0.40;;;7.70;99.90;;;;;;5094333;28;20992;-78
2021/12/01 07:34:42;;;;;;;0.90;0.90;;;7.80;99.90;;;;;;5094718;28;20201;-78
2021/12/01 07:37:09;;;;;;;0.60;0.60;;;7.80;99.90;;;;;;5095479;28;20616;-78
2021/12/01 07:39:36;;;;;;;0.63;0.63;;;7.90;99.90;;;;;;5094024;28;20677;-77
2021/12/01 07:42:04;;;;;;;0.50;0.50;;;8.00;99.90;;;;;;5094086;28;20218;-78
2021/12/01 07:44:30;;;;;;;1.10;0.77;;;8.10;99.90;;;;;;5093977;28;20202;-78
2021/12/01 07:46:57;;;;;;;0.70;0.57;;;8.10;99.90;;;;;;5111014;28;20191;-77
2021/12/01 07:49:26;;;;;;;0.80;0.75;;;8.20;99.90;;;;;;5114538;28;20202;-77
2021/12/01 07:51:53;;;;;;;1.35;0.70;;;8.20;99.90;;;;;;5114713;28;20215;-77
2021/12/01 07:54:20;;;;;;;0.55;0.55;;;8.20;99.90;;;;;;5115170;28;20286;-78
2021/12/01 07:56:47;;;;;;;0.40;0.40;;;8.20;99.90;;;;;;5115948;28;20203;-78
2021/12/01 07:59:16;;;;;;;0.73;0.73;;;8.20;99.90;;;;;;5114552;28;20209;-78
2021/12/01 08:01:43;;;;;;;0.80;0.80;;;8.30;99.90;;;;;;5114328;28;20692;-78
2021/12/01 08:04:10;;;;;;;1.25;0.65;;;8.20;99.90;;;;;;5114219;28;20199;-78
2021/12/01 08:06:40;;;;;;;1.45;0.60;;;8.20;99.90;;;;;;5114008;28;20202;-76
2021/12/01 08:09:07;;;;;;;3.60;0.50;;;8.20;99.90;;;;;;5113725;28;20193;-78
2021/12/01 08:11:34;;;;;;;0.70;0.60;;;8.20;99.90;;;;;;5114562;28;20209;-78
2021/12/01 08:14:01;;;;;;;0.57;0.55;;;8.20;99.90;;;;;;5115772;28;20196;-78
2021/12/01 08:16:29;;;;;;;1.90;1.20;;;8.10;99.90;;;;;;5115146;28;20277;-78
2021/12/01 08:18:55;;;;;;;0.40;0.40;;;8.10;99.90;;;;;;5117378;28;20719;-78
2021/12/01 08:21:23;;;;;;;0.60;0.40;;;8.10;99.90;;;;;;5115087;28;20294;-79
2021/12/01 08:23:52;;;;;;;0.50;0.50;;;8.10;99.90;;;;;;5115432;28;20631;-78
2021/12/01 08:26:19;;;;;;;0.40;0.40;;;8.10;99.90;;;;;;5115913;28;20199;-76
2021/12/01 08:28:46;;;;;;;1.08;0.70;;;8.10;99.90;;;;;;5099596;28;20202;-77
2021/12/01 08:31:14;;;;;;;0.40;0.40;;;8.10;99.90;;;;;;5110737;28;20197;-78
2021/12/01 08:33:41;;;;;;;0.93;0.40;;;8.10;99.90;;;;;;5114349;28;20306;-77
2021/12/01 08:36:09;;;;;;;0.50;0.40;;;8.10;99.90;;;;;;5113979;28;20197;-78
2021/12/01 08:38:37;;;;;;;0.50;0.40;;;8.10;99.90;;;;;;5114738;28;20219;-78
2021/12/01 08:41:07;;;;;;;0.65;0.47;;;8.10;99.90;;;;;;5114209;28;20196;-78
2021/12/01 08:43:34;;;;;;;1.50;0.77;;;8.10;99.90;;;;;;5114263;28;20228;-75
2021/12/01 08:46:01;;;;;;;1.48;0.77;;;8.10;99.90;;;;;;5105261;28;20192;-78
2021/12/01 08:48:28;;;;;;;0.50;0.40;;;8.10;99.90;;;;;;5094274;28;20187;-78
2021/12/01 08:50:56;;;;;;;2.25;1.25;;;8.10;99.90;;;;;;5093129;28;20202;-78
2021/12/01 08:53:23;;;;;;;4.40;0.70;;;8.20;99.90;;;;;;5093076;28;20212;-78
2021/12/01 08:55:50;;;;;;;0.60;0.60;;;8.20;99.90;;;;;;5093398;28;20284;-78
2021/12/01 08:58:19;;;;;;;0.50;0.50;;;8.20;99.90;;;;;;5093479;28;20219;-77
2021/12/01 09:00:48;;;;;;;0.40;0.30;;;8.20;99.90;;;;;;5092610;28;20678;-75
2021/12/01 09:03:17;;;;;;;0.50;0.50;;;8.20;99.90;;;;;;5093639;28;20220;-78
2021/12/01 09:05:46;;;;;;;0.60;0.60;;;8.20;99.90;;;;;;5094224;28;20205;-77
2021/12/01 09:08:14;;;;;;;0.50;0.40;;;8.20;99.90;;;;;;5093573;28;20228;-78
2021/12/01 09:10:41;;;;;;;1.20;0.50;;;8.30;99.90;;;;;;5091775;28;20200;-78
2021/12/01 09:13:09;;;;;;;0.75;0.75;;;8.20;99.90;;;;;;5092091;28;20308;-77
2021/12/01 09:15:39;;;;;;;0.50;0.50;;;8.20;99.90;;;;;;5092282;28;20196;-78
2021/12/01 09:18:07;;;;;;;0.80;0.70;;;8.20;99.90;;;;;;5092887;28;20207;-78
2021/12/01 09:20:34;;;;;;;0.47;0.40;;;8.20;99.90;;;;;;5092606;28;20571;-77
2021/12/01 09:23:02;;;;;;;0.73;0.52;;;8.20;99.90;;;;;;5091600;28;20220;-77
2021/12/01 09:25:29;;;;;;;0.40;0.40;;;8.20;99.90;;;;;;5092003;28;20543;-78
2021/12/01 09:27:57;;;;;;;0.65;0.50;;;8.20;99.90;;;;;;5095289;28;20205;-78
2021/12/01 09:30:24;;;;;;;0.57;0.55;;;8.20;99.90;;;;;;5113759;27;20216;-78
2021/12/01 09:32:52;;;;;;;2.25;1.27;;;8.20;99.90;;;;;;5129572;27;20591;-79
2021/12/01 09:35:19;;;;;;;1.35;0.60;;;8.20;99.90;;;;;;5139362;27;20197;-78
2021/12/01 09:37:46;;;;;;;0.50;0.40;;;8.20;99.90;;;;;;5113126;27;20215;-78
2021/12/01 09:40:17;;;;;;;0.50;0.50;;;8.20;99.90;;;;;;5117998;28;20203;-79
2021/12/01 09:42:46;;;;;;;0.60;0.50;;;8.20;99.90;;;;;;5110752;28;20281;-78
2021/12/01 09:45:14;;;;;;;0.40;0.40;;;8.20;99.90;;;;;;5098196;28;20209;-80
2021/12/01 09:47:41;;;;;;;0.50;0.40;;;8.20;99.90;;;;;;5102240;28;20189;-76
2021/12/01 09:50:10;;;;;;;0.50;0.40;;;8.20;99.90;;;;;;5097106;28;20194;-78
2021/12/01 09:52:38;;;;;;;0.50;0.40;;;8.20;99.90;;;;;;5097809;28;20216;-78
2021/12/01 09:55:13;;;;;;;0.70;0.60;;;8.20;99.90;;;;;;5099839;28;20200;-78
2021/12/01 09:57:52;;;;;;;0.50;0.50;;;8.20;99.90;;;;;;5095796;28;20239;-78
2021/12/01 10:00:19;;;;;;;0.60;0.50;;;8.20;99.90;;;;;;5096742;28;20179;-78
2021/12/01 10:02:45;;;;;;;0.40;0.40;;;8.20;99.90;;;;;;5097109;28;20590;-78
2021/12/01 10:05:16;;;;;;;1.20;0.70;;;8.20;99.90;;;;;;5097841;28;20559;-78
2021/12/01 10:07:43;;;;;;;0.45;0.43;;;8.30;99.90;;;;;;5097257;28;20205;-77
2021/12/01 10:10:13;;;;;;;0.40;0.30;;;8.30;99.90;;;;;;5096970;28;20200;-78
2021/12/01 10:12:47;;;;;;;0.40;0.30;;;8.30;99.90;;;;;;5096783;28;20251;-78
2021/12/01 10:15:15;;;;;;;0.40;0.40;;;8.30;99.90;;;;;;5096912;28;20200;-78
2021/12/01 10:17:42;;;;;;;0.50;0.40;;;8.30;99.90;;;;;;5096438;28;20211;-77
2021/12/01 10:20:15;;;;;;;0.50;0.43;;;8.30;99.90;;;;;;5097638;28;20196;-78
2021/12/01 10:23:08;;;;;;;0.50;0.47;;;8.30;99.90;;;;;;5097634;28;20768;-79
2021/12/01 10:25:35;;;;;;;0.40;0.30;;;8.30;99.90;;;;;;5098162;28;20204;-78
2021/12/01 10:28:02;;;;;;;0.40;0.40;;;8.30;99.90;;;;;;5097722;28;20291;-78
2021/12/01 10:30:40;;;;;;;0.60;0.60;;;8.30;99.90;;;;;;5096676;28;20562;-78
2021/12/01 10:33:09;;;;;;;0.40;0.40;;;8.30;99.90;;;;;;5096548;28;20314;-78
2021/12/01 10:35:39;;;;;;;0.40;0.30;;;8.30;99.90;;;;;;5096200;28;20200;-78
2021/12/01 10:38:07;;;;;;;0.40;0.40;;;8.30;99.90;;;;;;5095465;28;20217;-78
2021/12/01 10:40:35;;;;;;;0.40;0.30;;;8.30;99.90;;;;;;5094666;28;20200;-77
2021/12/01 10:43:05;;;;;;;0.50;0.50;;;8.30;99.90;;;;;;5095051;28;20717;-77
2021/12/01 10:45:33;;;;;;;0.40;0.40;;;8.30;99.90;;;;;;5095828;28;20224;-78
2021/12/01 10:48:01;;;;;;;31.38;2.45;;;8.30;99.90;;;;;;5095705;28;20471;-78
2021/12/01 10:50:29;;;;;;;1.40;0.60;;;8.30;99.90;;;;;;5095758;28;20202;-78
2021/12/01 10:53:04;;;;;;;0.80;0.60;;;8.30;99.90;;;;;;5095272;28;20212;-80
2021/12/01 10:58:53;;;;;;;0.50;0.40;;;8.40;99.90;;;;;;5095990;28;20215;-78
2021/12/01 11:01:22;;;;;;;0.50;0.50;;;8.40;99.90;;;;;;5095995;28;20199;-78
2021/12/01 11:03:50;;;;;;;0.50;0.50;;;8.40;99.90;;;;;;5096436;28;20731;-78
2021/12/01 11:06:20;;;;;;;0.40;0.30;;;8.40;99.90;;;;;;5097013;28;20251;-78
2021/12/01 11:08:55;;;;;;;0.50;0.50;;;8.40;99.90;;;;;;5095665;28;20251;-76
2021/12/01 11:11:24;;;;;;;1.08;0.40;;;8.50;99.90;;;;;;5096362;28;20528;-79
2021/12/01 11:13:51;;;;;;;0.50;0.40;;;8.50;99.90;;;;;;5096224;28;20226;-79
2021/12/01 11:16:19;;;;;;;0.85;0.50;;;8.50;99.90;;;;;;5097268;28;20195;-79
2021/12/01 11:18:47;;;;;;;0.73;0.63;;;8.50;99.90;;;;;;5097116;28;20761;-78
2021/12/01 11:21:15;;;;;;;0.40;0.30;;;8.50;99.90;;;;;;5095256;28;20196;-79
2021/12/01 11:23:44;;;;;;;2.70;1.80;;;8.50;99.90;;;;;;5096469;28;20281;-79
2021/12/01 11:26:14;;;;;;;18.40;6.53;;;8.40;99.90;;;;;;5096105;28;20291;-79
2021/12/01 11:28:44;;;;;;;0.57;0.47;;;8.50;99.90;;;;;;5096658;28;20223;-78
2021/12/01 11:31:13;;;;;;;1.00;0.93;;;8.50;99.90;;;;;;5096344;28;20192;-78
2021/12/01 11:33:43;;;;;;;0.40;0.30;;;8.50;99.90;;;;;;5096145;28;20228;-79
2021/12/01 11:36:12;;;;;;;0.40;0.30;;;8.50;99.90;;;;;;5097841;28;20196;-79
2021/12/01 11:38:39;;;;;;;0.40;0.30;;;8.60;99.90;;;;;;5096392;28;20322;-79
2021/12/01 11:41:08;;;;;;;0.40;0.30;;;8.60;99.90;;;;;;5095983;28;20199;-80
2021/12/01 11:43:38;;;;;;;0.40;0.30;;;8.70;99.90;;;;;;5096387;28;20220;-79
2021/12/01 11:46:07;;;;;;;0.40;0.40;;;8.70;99.90;;;;;;5095653;28;20222;-79
2021/12/01 11:48:38;;;;;;;4.93;0.60;;;8.70;99.90;;;;;;5098211;28;20192;-79
2021/12/01 11:51:13;;;;;;;0.57;0.57;;;8.60;99.90;;;;;;5095700;28;20253;-80
2021/12/01 11:53:42;;;;;;;0.50;0.50;;;8.60;99.90;;;;;;5095725;28;20712;-79
2021/12/01 11:56:16;;;;;;;0.40;0.30;;;8.50;99.90;;;;;;5095973;28;20235;-78
2021/12/01 11:58:52;;;;;;;0.90;0.65;;;8.40;99.90;;;;;;5096250;28;20515;-78
2021/12/01 12:01:38;;;;;;;0.40;0.30;;;8.30;99.90;;;;;;5095962;28;20294;-79
2021/12/01 12:04:28;;;;;;;0.40;0.30;;;8.30;99.90;;;;;;5095709;28;20287;-78
2021/12/01 12:07:01;;;;;;;1.50;0.75;;;8.30;99.90;;;;;;5095615;28;20679;-79
2021/12/01 12:09:29;;;;;;;0.40;0.30;;;8.30;99.90;;;;;;5095873;28;20567;-79
2021/12/01 12:11:57;;;;;;;0.40;0.40;;;8.30;99.90;;;;;;5095798;28;20711;-79
2021/12/01 12:14:29;;;;;;;0.40;0.30;;;8.30;99.90;;;;;;5095602;28;20574;-78
2021/12/01 12:17:05;;;;;;;1.30;0.85;;;8.30;99.90;;;;;;5096135;28;20284;-79
2021/12/01 12:19:52;;;;;;;0.40;0.40;;;8.30;99.90;;;;;;5097238;28;20207;-78
2021/12/01 12:22:23;;;;;;;0.40;0.30;;;8.30;99.90;;;;;;5101834;28;20906;-77
2021/12/01 12:24:52;;;;;;;0.40;0.40;;;8.30;99.90;;;;;;5095567;28;20682;-79
2021/12/01 12:27:38;;;;;;;0.40;0.30;;;8.30;99.90;;;;;;5095911;28;20206;-79
2021/12/01 12:30:11;;;;;;;0.40;0.30;;;8.30;99.90;;;;;;5097124;28;20279;-79
2021/12/01 12:32:39;;;;;;;0.50;0.50;;;8.40;99.90;;;;;;5095190;28;20310;-79
2021/12/01 12:35:09;;;;;;;0.40;0.40;;;8.40;99.90;;;;;;5095557;28;20202;-79
2021/12/01 12:37:37;;;;;;;0.50;0.50;;;8.40;99.90;;;;;;5095149;28;20625;-79
2021/12/01 12:40:08;;;;;;;0.40;0.30;;;8.40;99.90;;;;;;5094633;28;20242;-79
2021/12/01 12:42:35;;;;;;;0.50;0.50;;;8.40;99.90;;;;;;5095418;28;20226;-78
2021/12/01 12:45:04;;;;;;;0.40;0.40;;;8.40;99.90;;;;;;5095895;28;20231;-79
2021/12/01 12:47:49;;;;;;;2.65;2.05;;;8.40;99.90;;;;;;5095656;28;20279;-79
2021/12/01 12:50:17;;;;;;;0.60;0.60;;;8.30;99.90;;;;;;5094274;28;20191;-80
2021/12/01 12:52:46;;;;;;;0.50;0.50;;;8.30;99.90;;;;;;5095419;28;20307;-79
2021/12/01 12:55:38;;;;;;;0.50;0.50;;;8.20;99.90;;;;;;5095383;28;20205;-79
2021/12/01 12:58:08;;;;;;;0.50;0.50;;;8.20;99.90;;;;;;5094736;28;20200;-79
2021/12/01 13:00:38;;;;;;;0.40;0.30;;;8.20;99.90;;;;;;5094124;28;20536;-79
2021/12/01 13:03:29;;;;;;;0.40;0.40;;;8.20;99.90;;;;;;5097571;28;20259;-79
2021/12/01 13:05:57;;;;;;;0.40;0.40;;;8.20;99.90;;;;;;5098542;28;20200;-79
2021/12/01 13:08:32;;;;;;;0.40;0.40;;;8.20;99.90;;;;;;5098051;28;20195;-79
2021/12/01 13:11:01;;;;;;;0.40;0.40;;;8.20;99.90;;;;;;5097904;28;20284;-79
2021/12/01 13:13:30;;;;;;;0.40;0.40;;;8.20;99.90;;;;;;5098212;28;20215;-79